Time;durP1;ratioP1;P1;durP2;ratioP2;P2;SDS_P1;SDS_P2;PMS_P1;PMS_P2;Temp;Humidity;BMP_temperature;BMP_pressure;BME280_temperature;BME280_humidity;BME280_pressure;Samples;Min_cycle;Max_cycle;Signal;HPM_P1;HPM_P2
2023/05/06 00:00:45;;;;;;;18.30;13.27;;;11.50;99.90;;;;;;5102211;27;20031;-58
2023/05/06 00:03:11;;;;;;;17.50;13.00;;;11.50;99.90;;;;;;5095802;27;20468;-58
2023/05/06 00:05:37;;;;;;;19.20;13.82;;;11.40;99.90;;;;;;5104898;27;20059;-59
2023/05/06 00:08:03;;;;;;;25.52;17.00;;;11.60;99.90;;;;;;5105136;27;20641;-58
2023/05/06 00:10:29;;;;;;;22.98;16.92;;;11.60;99.90;;;;;;5104097;27;20040;-58
2023/05/06 00:12:54;;;;;;;23.50;17.10;;;11.60;99.90;;;;;;5099827;27;20047;-58
2023/05/06 00:15:20;;;;;;;24.30;17.05;;;11.60;99.90;;;;;;5102877;27;20304;-58
2023/05/06 00:17:46;;;;;;;27.40;18.35;;;11.50;99.90;;;;;;5102814;27;20379;-58
2023/05/06 00:20:11;;;;;;;23.83;17.70;;;11.60;99.90;;;;;;5103068;27;20142;-58
2023/05/06 00:22:37;;;;;;;25.35;18.42;;;11.50;99.90;;;;;;5106894;27;20589;-58
2023/05/06 00:25:03;;;;;;;24.90;17.67;;;11.50;99.90;;;;;;5104860;27;20088;-58
2023/05/06 00:27:28;;;;;;;27.55;18.10;;;11.60;99.90;;;;;;5108496;27;20551;-58
2023/05/06 00:29:54;;;;;;;25.63;19.02;;;11.70;99.90;;;;;;5101659;27;20035;-58
2023/05/06 00:32:19;;;;;;;25.73;19.42;;;11.70;99.90;;;;;;5104975;27;20502;-58
2023/05/06 00:34:45;;;;;;;25.63;18.63;;;11.70;99.90;;;;;;5111224;27;20421;-58
2023/05/06 00:37:12;;;;;;;23.95;17.23;;;11.70;99.90;;;;;;5078330;28;20071;-59
2023/05/06 00:39:37;;;;;;;19.85;14.65;;;11.70;99.90;;;;;;5103889;27;20044;-58
2023/05/06 00:42:03;;;;;;;20.88;16.10;;;11.50;99.90;;;;;;5103624;27;20062;-57
2023/05/06 00:44:30;;;;;;;27.95;19.55;;;11.40;99.90;;;;;;5108077;27;20058;-58
2023/05/06 00:46:57;;;;;;;33.88;21.95;;;11.40;99.90;;;;;;5098067;27;20401;-58
2023/05/06 00:49:23;;;;;;;30.15;21.33;;;11.50;99.90;;;;;;5099544;27;20241;-58
2023/05/06 00:51:50;;;;;;;35.42;23.30;;;11.60;99.90;;;;;;5109551;27;20500;-58
2023/05/06 00:54:16;;;;;;;33.60;22.73;;;11.50;99.90;;;;;;5098158;27;20042;-59
2023/05/06 00:56:42;;;;;;;33.80;21.85;;;11.40;99.90;;;;;;5101091;27;20027;-58
2023/05/06 00:59:07;;;;;;;34.13;22.80;;;11.40;99.90;;;;;;5109048;27;20141;-58
2023/05/06 01:01:33;;;;;;;30.90;21.17;;;11.30;99.90;;;;;;5100543;27;20142;-58
2023/05/06 01:03:59;;;;;;;30.63;20.55;;;11.40;99.90;;;;;;5103663;27;20051;-58
2023/05/06 01:06:31;;;;;;;33.20;22.33;;;11.40;99.90;;;;;;5103300;27;20557;-58
2023/05/06 01:09:05;;;;;;;32.22;22.52;;;11.30;99.90;;;;;;5111921;27;20051;-59
2023/05/06 01:11:57;;;;;;;33.80;21.92;;;11.20;99.90;;;;;;5108118;27;20353;-59
2023/05/06 01:14:40;;;;;;;34.08;22.00;;;11.10;99.90;;;;;;5096979;27;20445;-58
2023/05/06 01:17:10;;;;;;;32.50;20.48;;;11.10;99.90;;;;;;5106323;27;20461;-58
2023/05/06 01:19:40;;;;;;;30.15;21.13;;;11.20;99.90;;;;;;5110817;27;20228;-58
2023/05/06 01:22:08;;;;;;;29.65;19.60;;;11.30;99.90;;;;;;5094493;28;20426;-58
2023/05/06 01:24:44;;;;;;;28.25;19.73;;;11.30;99.90;;;;;;5105825;27;20070;-58
2023/05/06 01:27:11;;;;;;;38.03;24.65;;;11.10;99.90;;;;;;5100088;27;20108;-58
2023/05/06 01:29:40;;;;;;;32.47;22.08;;;11.20;99.90;;;;;;5098964;27;20815;-59
2023/05/06 01:32:19;;;;;;;34.47;23.45;;;11.20;99.90;;;;;;5104046;27;20042;-58
2023/05/06 01:35:16;;;;;;;36.50;23.35;;;11.20;99.90;;;;;;5111776;27;20121;-58
2023/05/06 01:37:55;;;;;;;38.05;24.45;;;11.20;99.90;;;;;;5100828;27;20110;-59
2023/05/06 01:40:24;;;;;;;36.75;23.27;;;11.20;99.90;;;;;;5100172;27;20521;-58
2023/05/06 01:42:51;;;;;;;36.60;23.52;;;11.10;99.90;;;;;;5106091;27;20035;-59
2023/05/06 01:45:18;;;;;;;33.08;21.65;;;11.20;99.90;;;;;;5103862;27;20151;-58
2023/05/06 01:47:45;;;;;;;35.08;23.05;;;11.10;99.90;;;;;;5099024;27;20210;-58
2023/05/06 01:50:11;;;;;;;31.30;21.20;;;11.10;99.90;;;;;;5101094;27;20792;-59
2023/05/06 01:52:37;;;;;;;30.70;21.33;;;11.10;99.90;;;;;;5110126;27;20036;-58
2023/05/06 01:55:03;;;;;;;32.35;20.70;;;11.00;99.90;;;;;;5105339;27;20040;-58
2023/05/06 01:57:28;;;;;;;32.88;21.05;;;11.00;99.90;;;;;;5104640;27;20433;-58
2023/05/06 01:59:54;;;;;;;32.05;21.73;;;10.90;99.90;;;;;;5102760;27;20441;-58
2023/05/06 02:02:20;;;;;;;31.60;20.92;;;11.00;99.90;;;;;;5107551;27;20569;-58
2023/05/06 02:04:45;;;;;;;31.95;21.60;;;11.00;99.90;;;;;;5109277;27;20038;-58
2023/05/06 02:07:11;;;;;;;32.38;22.38;;;11.10;99.90;;;;;;5112245;27;20043;-58
2023/05/06 02:09:36;;;;;;;33.05;22.05;;;11.20;99.90;;;;;;5104676;27;20045;-58
2023/05/06 02:12:02;;;;;;;36.50;22.98;;;11.10;99.90;;;;;;5084648;28;20027;-58
2023/05/06 02:14:28;;;;;;;33.70;22.52;;;11.00;99.90;;;;;;5106887;27;20067;-58
2023/05/06 02:16:54;;;;;;;35.05;23.35;;;11.00;99.90;;;;;;5105797;27;20061;-58
2023/05/06 02:19:19;;;;;;;37.45;23.52;;;11.00;99.90;;;;;;5107213;27;20035;-59
2023/05/06 02:21:45;;;;;;;36.72;23.75;;;11.00;99.90;;;;;;5117272;27;20042;-58
2023/05/06 02:24:11;;;;;;;35.17;23.33;;;10.90;99.90;;;;;;5114364;27;20028;-58
2023/05/06 02:26:36;;;;;;;37.55;23.65;;;10.90;99.90;;;;;;5108224;27;20031;-58
2023/05/06 02:29:02;;;;;;;34.85;23.27;;;10.90;99.90;;;;;;5103450;27;20414;-58
2023/05/06 02:31:28;;;;;;;35.50;22.85;;;10.80;99.90;;;;;;5100805;27;20070;-58
2023/05/06 02:33:53;;;;;;;37.55;23.85;;;10.90;99.90;;;;;;5115581;27;20031;-58
2023/05/06 02:36:19;;;;;;;36.45;23.35;;;10.90;99.90;;;;;;5101312;27;20146;-58
2023/05/06 02:38:44;;;;;;;33.80;22.15;;;10.80;99.90;;;;;;5108495;27;20047;-58
2023/05/06 02:41:10;;;;;;;38.40;23.10;;;10.80;99.90;;;;;;5106765;27;22159;-58
2023/05/06 02:43:35;;;;;;;36.22;22.90;;;10.70;99.90;;;;;;5103951;27;20352;-58
2023/05/06 02:46:01;;;;;;;36.38;22.92;;;10.70;99.90;;;;;;5084754;27;20202;-59
2023/05/06 02:48:27;;;;;;;36.30;22.25;;;10.70;99.90;;;;;;5096535;27;20100;-58
2023/05/06 02:50:52;;;;;;;32.42;22.25;;;10.60;99.90;;;;;;5115819;27;20035;-58
2023/05/06 02:53:18;;;;;;;33.92;21.90;;;10.60;99.90;;;;;;5103511;27;20049;-58
2023/05/06 02:55:43;;;;;;;33.58;21.77;;;10.60;99.90;;;;;;5099613;28;20023;-59
2023/05/06 02:58:09;;;;;;;29.42;20.67;;;10.80;99.90;;;;;;5083296;27;20059;-58
2023/05/06 03:00:35;;;;;;;40.38;23.45;;;10.70;99.90;;;;;;5085896;27;20172;-58
2023/05/06 03:03:00;;;;;;;39.22;23.73;;;10.60;99.90;;;;;;5099146;27;20372;-58
2023/05/06 03:05:26;;;;;;;38.97;24.05;;;10.60;99.90;;;;;;5114046;27;20031;-58
2023/05/06 03:07:51;;;;;;;35.00;20.88;;;10.60;99.90;;;;;;5105207;27;20361;-58
2023/05/06 03:10:17;;;;;;;32.15;20.08;;;10.50;99.90;;;;;;5103273;27;20043;-58
2023/05/06 03:12:43;;;;;;;36.05;20.85;;;10.50;99.90;;;;;;5104661;27;20341;-58
2023/05/06 03:15:09;;;;;;;31.65;20.02;;;10.60;99.90;;;;;;5106908;27;20124;-58
2023/05/06 03:17:34;;;;;;;28.50;18.23;;;11.00;99.90;;;;;;5104470;27;20177;-58
2023/05/06 03:20:00;;;;;;;31.27;18.17;;;10.50;99.90;;;;;;5096661;28;20118;-58
2023/05/06 03:22:26;;;;;;;28.90;18.58;;;10.60;99.90;;;;;;5106166;27;20046;-58
2023/05/06 03:24:51;;;;;;;30.67;19.88;;;10.50;99.90;;;;;;5110507;27;20413;-59
2023/05/06 03:27:17;;;;;;;30.38;19.38;;;10.50;99.90;;;;;;5101962;28;20046;-58
2023/05/06 03:29:42;;;;;;;30.38;19.48;;;10.50;99.90;;;;;;5116685;27;20091;-58
2023/05/06 03:32:08;;;;;;;33.72;20.92;;;10.60;99.90;;;;;;5113818;27;20047;-58
2023/05/06 03:34:33;;;;;;;33.13;21.80;;;10.70;99.90;;;;;;5115963;27;20106;-59
2023/05/06 03:36:59;;;;;;;31.60;21.50;;;10.90;99.90;;;;;;5106959;27;20035;-58
2023/05/06 03:39:25;;;;;;;28.95;21.30;;;10.90;99.90;;;;;;5094994;28;20044;-58
2023/05/06 03:41:50;;;;;;;27.15;20.08;;;11.00;99.90;;;;;;5105266;28;20035;-58
2023/05/06 03:44:16;;;;;;;28.70;20.58;;;11.00;99.90;;;;;;5099780;28;20438;-58
2023/05/06 03:46:41;;;;;;;27.38;19.90;;;10.90;99.90;;;;;;5102933;28;20130;-58
2023/05/06 03:49:07;;;;;;;34.22;22.08;;;10.90;99.90;;;;;;5099698;28;20424;-58
2023/05/06 03:51:34;;;;;;;29.42;20.83;;;11.10;99.90;;;;;;5113461;28;20775;-58
2023/05/06 03:54:00;;;;;;;30.23;21.30;;;11.10;99.90;;;;;;5101791;28;20067;-58
2023/05/06 03:56:26;;;;;;;29.70;21.23;;;11.20;99.90;;;;;;5105071;28;20051;-58
2023/05/06 03:58:53;;;;;;;45.90;23.58;;;10.70;99.90;;;;;;5101589;28;20040;-59
2023/05/06 04:01:19;;;;;;;30.88;21.70;;;11.20;99.90;;;;;;5101534;28;20119;-58
2023/05/06 04:03:45;;;;;;;34.75;22.48;;;11.40;99.90;;;;;;5104421;28;20092;-58
2023/05/06 04:06:10;;;;;;;33.05;22.40;;;11.30;99.90;;;;;;5099423;28;20039;-58
2023/05/06 04:08:36;;;;;;;31.27;21.95;;;11.20;99.90;;;;;;5103326;28;20054;-58
2023/05/06 04:11:05;;;;;;;29.00;21.00;;;11.30;99.90;;;;;;5093068;28;20894;-56
2023/05/06 04:13:31;;;;;;;26.23;19.95;;;11.20;99.90;;;;;;5091221;28;20038;-58
2023/05/06 04:15:57;;;;;;;28.75;21.27;;;11.10;99.90;;;;;;5112385;28;20039;-58
2023/05/06 04:18:22;;;;;;;31.92;20.98;;;9.00;99.90;;;;;;5106983;28;20039;-58
2023/05/06 04:20:48;;;;;;;31.83;22.83;;;11.20;99.90;;;;;;5106611;28;20027;-58
2023/05/06 04:23:14;;;;;;;29.08;21.60;;;11.30;99.90;;;;;;5119091;28;20467;-58
2023/05/06 04:25:41;;;;;;;34.72;23.40;;;11.30;99.90;;;;;;5107416;28;20601;-57
2023/05/06 04:28:08;;;;;;;32.22;22.85;;;11.20;99.90;;;;;;5103073;28;20085;-57
2023/05/06 04:30:34;;;;;;;30.30;21.75;;;11.20;99.90;;;;;;5110178;28;20557;-58
2023/05/06 04:33:01;;;;;;;31.23;22.98;;;11.20;99.90;;;;;;5081680;28;20095;-58
2023/05/06 04:35:27;;;;;;;32.72;22.70;;;11.30;99.90;;;;;;5102218;28;20104;-58
2023/05/06 04:37:52;;;;;;;30.75;22.92;;;11.20;99.90;;;;;;5121106;27;20635;-58
2023/05/06 04:40:18;;;;;;;31.77;23.10;;;11.40;99.90;;;;;;5112334;28;20036;-58
2023/05/06 04:42:43;;;;;;;34.83;24.85;;;11.90;99.90;;;;;;5099600;28;20031;-57
2023/05/06 04:45:10;;;;;;;33.97;24.02;;;11.30;99.90;;;;;;5100094;28;20031;-58
2023/05/06 04:47:35;;;;;;;31.33;22.80;;;11.40;99.90;;;;;;5098755;27;20059;-58
2023/05/06 04:50:01;;;;;;;35.30;24.02;;;11.30;99.90;;;;;;5111521;27;20028;-58
2023/05/06 04:52:27;;;;;;;32.47;23.10;;;11.30;99.90;;;;;;5114514;27;20035;-57
2023/05/06 04:54:53;;;;;;;33.55;22.98;;;11.30;99.90;;;;;;5109921;27;20505;-58
2023/05/06 04:57:18;;;;;;;33.53;22.60;;;11.30;99.90;;;;;;5113063;27;20122;-58
2023/05/06 04:59:45;;;;;;;31.80;22.90;;;11.30;99.90;;;;;;5099224;28;20798;-58
2023/05/06 05:02:10;;;;;;;31.98;23.35;;;11.60;99.90;;;;;;5095474;27;20036;-58
2023/05/06 05:04:36;;;;;;;34.03;23.45;;;11.50;99.90;;;;;;5099934;27;20117;-57
2023/05/06 05:07:01;;;;;;;34.95;24.67;;;11.50;99.90;;;;;;5100574;27;20738;-56
2023/05/06 05:09:27;;;;;;;33.15;24.02;;;11.70;99.90;;;;;;5104452;27;20440;-57
2023/05/06 05:11:52;;;;;;;34.60;24.48;;;11.70;99.90;;;;;;5093331;28;20031;-58
2023/05/06 05:14:18;;;;;;;34.83;25.27;;;11.60;99.90;;;;;;5100925;27;20042;-58
2023/05/06 05:16:44;;;;;;;34.08;24.27;;;11.60;99.90;;;;;;5105479;27;20073;-57
2023/05/06 05:19:09;;;;;;;36.42;25.80;;;11.80;99.90;;;;;;5100794;27;20038;-57
2023/05/06 05:21:35;;;;;;;36.65;25.50;;;12.00;99.90;;;;;;5108491;27;20526;-58
2023/05/06 05:24:00;;;;;;;37.55;26.35;;;12.00;99.90;;;;;;5105996;27;20133;-58
2023/05/06 05:26:26;;;;;;;39.20;25.20;;;11.90;99.90;;;;;;5084927;27;20514;-58
2023/05/06 05:28:51;;;;;;;37.75;25.88;;;11.90;99.90;;;;;;5117252;27;20039;-57
2023/05/06 05:31:17;;;;;;;36.97;24.00;;;11.90;99.90;;;;;;5101584;27;20104;-58
2023/05/06 05:33:42;;;;;;;37.88;25.88;;;11.90;99.90;;;;;;5118107;27;20101;-57
2023/05/06 05:36:11;;;;;;;37.25;25.20;;;12.20;99.90;;;;;;5098418;27;20050;-57
2023/05/06 05:38:37;;;;;;;39.80;26.13;;;;;;;;;;5102761;27;20051;-58
2023/05/06 05:41:02;;;;;;;40.35;26.80;;;12.20;99.90;;;;;;5104535;27;20288;-57
2023/05/06 05:43:30;;;;;;;41.30;26.90;;;12.40;99.90;;;;;;5096858;27;20328;-58
2023/05/06 05:45:55;;;;;;;41.92;26.40;;;12.40;99.90;;;;;;5106204;27;20037;-58
2023/05/06 05:48:21;;;;;;;39.85;25.90;;;12.40;99.90;;;;;;5098426;27;20065;-57
2023/05/06 05:50:46;;;;;;;41.20;27.20;;;12.40;99.90;;;;;;5109961;27;20215;-57
2023/05/06 05:53:12;;;;;;;39.13;26.38;;;12.50;99.90;;;;;;5107233;27;20158;-58
2023/05/06 05:55:37;;;;;;;40.92;27.10;;;12.60;99.90;;;;;;5114722;27;20027;-58
2023/05/06 05:58:03;;;;;;;41.63;27.38;;;12.80;99.90;;;;;;5100490;27;20079;-57
2023/05/06 06:00:29;;;;;;;47.47;29.05;;;13.00;99.90;;;;;;5101632;27;20040;-57
2023/05/06 06:02:54;;;;;;;48.15;30.65;;;13.10;99.90;;;;;;5104588;27;20027;-58
2023/05/06 06:05:20;;;;;;;46.03;28.70;;;13.20;99.90;;;;;;5114771;27;20031;-57
2023/05/06 06:07:46;;;;;;;47.03;29.73;;;13.30;99.90;;;;;;5106134;27;20035;-57
2023/05/06 06:10:13;;;;;;;48.80;30.92;;;;;;;;;;5077061;28;20419;-57
2023/05/06 06:12:39;;;;;;;48.40;29.85;;;13.60;99.90;;;;;;5104775;27;20035;-57
2023/05/06 06:15:05;;;;;;;42.85;28.75;;;13.70;99.90;;;;;;5106194;27;20379;-58
2023/05/06 06:17:31;;;;;;;44.80;28.95;;;13.50;99.90;;;;;;5103817;27;20118;-57
2023/05/06 06:19:58;;;;;;;43.97;27.80;;;13.50;99.90;;;;;;5087870;27;20560;-57
2023/05/06 06:22:23;;;;;;;46.25;30.67;;;13.60;99.90;;;;;;5094349;27;20119;-57
2023/05/06 06:24:50;;;;;;;43.40;28.80;;;13.70;99.90;;;;;;5092786;28;20043;-57
2023/05/06 06:27:16;;;;;;;41.05;27.42;;;13.80;99.90;;;;;;5090158;27;20436;-57
2023/05/06 06:29:41;;;;;;;47.25;30.60;;;13.90;99.90;;;;;;5094366;28;20039;-57
2023/05/06 06:32:07;;;;;;;40.88;27.52;;;14.00;99.90;;;;;;5098631;27;20027;-57
2023/05/06 06:34:32;;;;;;;46.33;29.17;;;14.10;99.90;;;;;;5110396;27;20122;-57
2023/05/06 06:36:58;;;;;;;45.33;28.42;;;14.00;99.90;;;;;;5107798;27;20392;-57
2023/05/06 06:39:23;;;;;;;47.58;29.67;;;14.10;99.90;;;;;;5086170;28;20039;-57
2023/05/06 06:41:49;;;;;;;46.08;29.35;;;14.30;99.90;;;;;;5095522;27;20677;-55
2023/05/06 06:44:15;;;;;;;43.88;28.92;;;14.30;99.90;;;;;;5096262;27;20039;-55
2023/05/06 06:46:40;;;;;;;43.47;28.38;;;14.50;99.90;;;;;;5112479;27;20094;-55
2023/05/06 06:49:06;;;;;;;42.88;27.98;;;14.50;99.90;;;;;;5111186;27;20035;-56
2023/05/06 06:51:31;;;;;;;42.88;28.95;;;14.60;99.90;;;;;;5114380;27;20191;-55
2023/05/06 06:53:57;;;;;;;43.53;28.65;;;14.60;99.90;;;;;;5114343;27;20150;-55
2023/05/06 06:56:22;;;;;;;40.95;28.88;;;14.50;99.90;;;;;;5108972;27;20081;-54
2023/05/06 06:58:48;;;;;;;41.97;28.23;;;14.50;99.90;;;;;;5107077;27;20038;-54
2023/05/06 07:01:14;;;;;;;40.83;28.17;;;14.50;99.90;;;;;;5107603;27;20718;-55
2023/05/06 07:03:39;;;;;;;41.30;28.30;;;14.60;99.90;;;;;;5105802;27;20383;-54
2023/05/06 07:06:05;;;;;;;42.30;27.80;;;14.70;99.90;;;;;;5112783;27;20387;-54
2023/05/06 07:08:30;;;;;;;41.85;27.08;;;14.80;99.90;;;;;;5111881;27;20465;-55
2023/05/06 07:10:56;;;;;;;36.85;26.60;;;15.00;99.90;;;;;;5113349;27;20237;-55
2023/05/06 07:13:22;;;;;;;39.15;26.83;;;14.90;99.90;;;;;;5111139;27;20023;-55
2023/05/06 07:15:48;;;;;;;35.08;24.60;;;14.90;99.90;;;;;;5107101;27;20068;-55
2023/05/06 07:18:14;;;;;;;35.05;24.33;;;15.00;99.90;;;;;;5099528;28;20479;-55
2023/05/06 07:20:40;;;;;;;30.88;23.33;;;14.90;99.90;;;;;;5100275;27;20035;-55
2023/05/06 07:23:05;;;;;;;33.55;24.38;;;14.90;99.90;;;;;;5103390;28;20675;-55
2023/05/06 07:25:31;;;;;;;32.28;21.75;;;15.10;99.90;;;;;;5106252;27;20903;-57
2023/05/06 07:27:56;;;;;;;30.00;20.67;;;15.20;99.90;;;;;;5108133;27;20035;-57
2023/05/06 07:30:22;;;;;;;28.63;21.08;;;15.20;99.90;;;;;;5102806;27;20502;-57
2023/05/06 07:32:48;;;;;;;28.55;20.65;;;15.30;99.90;;;;;;5094256;27;20032;-57
2023/05/06 07:35:13;;;;;;;24.48;19.15;;;15.50;99.90;;;;;;5093808;28;20040;-57
2023/05/06 07:37:39;;;;;;;26.38;19.08;;;15.60;99.90;;;;;;5107312;27;20056;-57
2023/05/06 07:40:05;;;;;;;23.95;17.63;;;15.60;99.90;;;;;;5097589;28;20122;-57
2023/05/06 07:42:31;;;;;;;25.40;19.02;;;15.70;99.90;;;;;;5102808;28;20035;-57
2023/05/06 07:44:57;;;;;;;24.13;17.92;;;15.80;99.90;;;;;;5109166;28;20027;-57
2023/05/06 07:47:28;;;;;;;27.48;18.73;;;15.90;99.90;;;;;;5110405;28;20036;-57
2023/05/06 07:49:54;;;;;;;29.67;17.90;;;15.60;99.90;;;;;;5109894;28;20042;-57
2023/05/06 07:52:20;;;;;;;25.27;17.83;;;15.90;99.90;;;;;;5100917;28;20142;-57
2023/05/06 07:54:46;;;;;;;20.98;15.07;;;16.10;99.90;;;;;;5119431;28;20410;-57
2023/05/06 07:57:12;;;;;;;19.90;15.38;;;16.00;99.90;;;;;;5104253;28;20036;-57
2023/05/06 07:59:37;;;;;;;20.08;15.00;;;16.10;99.90;;;;;;5086682;28;20123;-57
2023/05/06 08:02:03;;;;;;;17.17;13.13;;;16.20;99.90;;;;;;5102836;28;20044;-57
2023/05/06 08:04:29;;;;;;;18.77;13.75;;;15.80;99.90;;;;;;5091757;28;20030;-57
2023/05/06 08:06:55;;;;;;;16.65;11.57;;;16.10;99.90;;;;;;5092434;28;20050;-57
2023/05/06 08:09:21;;;;;;;18.52;11.85;;;16.40;99.90;;;;;;5088460;28;20395;-57
2023/05/06 08:11:48;;;;;;;14.65;11.93;;;16.50;99.90;;;;;;5104572;28;20035;-57
2023/05/06 08:14:14;;;;;;;18.02;12.05;;;16.70;99.90;;;;;;5102775;28;20119;-57
2023/05/06 08:16:40;;;;;;;16.58;11.63;;;16.80;99.90;;;;;;5105457;28;20375;-57
2023/05/06 08:19:05;;;;;;;13.25;10.82;;;16.90;99.90;;;;;;5103314;28;20019;-57
2023/05/06 08:21:31;;;;;;;16.13;11.20;;;16.90;99.90;;;;;;5110556;27;20463;-57
2023/05/06 08:23:56;;;;;;;12.68;9.27;;;16.70;99.90;;;;;;5112521;27;20050;-57
2023/05/06 08:26:22;;;;;;;13.68;7.85;;;16.90;99.90;;;;;;5112288;27;20126;-57
2023/05/06 08:28:47;;;;;;;13.35;8.93;;;16.80;99.90;;;;;;5103127;28;20453;-57
2023/05/06 08:31:13;;;;;;;10.93;7.75;;;16.70;99.90;;;;;;5109060;27;20046;-57
2023/05/06 08:33:38;;;;;;;13.35;8.73;;;16.90;99.90;;;;;;5112162;27;20102;-58
2023/05/06 08:36:04;;;;;;;11.52;8.75;;;16.90;99.90;;;;;;5106094;27;20026;-57
2023/05/06 08:38:30;;;;;;;10.65;7.97;;;17.20;99.90;;;;;;5112705;27;20097;-57
2023/05/06 08:40:59;;;;;;;9.27;6.72;;;17.10;99.90;;;;;;5118834;27;20088;-57
2023/05/06 08:43:26;;;;;;;9.93;6.30;;;17.20;99.90;;;;;;5108382;27;20027;-57
2023/05/06 08:45:52;;;;;;;10.48;6.22;;;17.40;99.90;;;;;;5107606;27;20032;-57
2023/05/06 08:48:17;;;;;;;10.70;6.47;;;17.60;99.90;;;;;;5106032;28;20424;-57
2023/05/06 08:50:43;;;;;;;8.77;6.45;;;17.50;99.90;;;;;;5109773;27;20092;-57
2023/05/06 08:53:12;;;;;;;8.68;6.18;;;17.50;99.90;;;;;;5109563;27;20031;-57
2023/05/06 08:55:40;;;;;;;9.50;6.35;;;17.30;99.90;;;;;;5117182;27;20595;-57
2023/05/06 08:58:06;;;;;;;8.68;6.35;;;17.50;99.90;;;;;;5113094;27;20475;-56
2023/05/06 09:00:32;;;;;;;8.45;6.07;;;17.60;99.90;;;;;;5104041;27;20043;-55
2023/05/06 09:02:58;;;;;;;12.25;6.05;;;17.90;99.90;;;;;;5111207;27;20297;-55
2023/05/06 09:05:23;;;;;;;8.70;5.60;;;18.00;99.90;;;;;;5115439;27;20042;-53
2023/05/06 09:07:49;;;;;;;7.55;5.10;;;18.10;99.90;;;;;;5095833;28;20471;-55
2023/05/06 09:10:16;;;;;;;8.68;5.13;;;18.10;99.90;;;;;;5102574;27;20043;-55
2023/05/06 09:12:42;;;;;;;68.95;57.10;;;18.20;99.90;;;;;;5110644;27;20088;-59
2023/05/06 09:15:09;;;;;;;15.10;11.50;;;18.10;99.90;;;;;;5108337;27;20028;-57
2023/05/06 09:17:35;;;;;;;8.90;5.50;;;18.00;99.90;;;;;;5111036;27;20495;-57
2023/05/06 09:20:01;;;;;;;7.38;5.18;;;18.00;99.90;;;;;;5108296;27;20064;-54
2023/05/06 09:22:28;;;;;;;7.10;5.25;;;17.90;99.90;;;;;;5109746;27;20059;-54
2023/05/06 09:24:56;;;;;;;7.97;5.78;;;18.20;99.90;;;;;;5105699;27;20039;-55
2023/05/06 09:27:26;;;;;;;6.97;4.85;;;18.40;99.90;;;;;;5107058;27;20438;-55
2023/05/06 09:30:05;;;;;;;7.25;5.18;;;18.40;99.90;;;;;;5111486;27;20085;-55
2023/05/06 09:32:31;;;;;;;9.55;5.40;;;18.50;99.90;;;;;;5112463;27;20035;-55
2023/05/06 09:34:57;;;;;;;6.93;4.68;;;18.40;99.90;;;;;;5098513;27;20035;-57
2023/05/06 09:37:25;;;;;;;5.82;4.15;;;18.60;99.90;;;;;;5108875;27;20545;-58
2023/05/06 09:39:53;;;;;;;7.38;4.07;;;18.50;99.90;;;;;;5112239;27;20564;-57
2023/05/06 09:42:25;;;;;;;7.05;3.90;;;18.60;99.90;;;;;;5108900;27;20502;-57
2023/05/06 09:44:56;;;;;;;5.28;3.22;;;18.70;99.90;;;;;;5117007;27;20380;-57
2023/05/06 09:47:24;;;;;;;5.53;3.78;;;18.90;99.90;;;;;;5117799;27;20116;-57
2023/05/06 09:49:49;;;;;;;5.82;3.45;;;18.90;99.90;;;;;;5109502;27;20032;-57
2023/05/06 09:52:16;;;;;;;5.22;3.50;;;19.00;99.90;;;;;;5118005;27;20027;-59
2023/05/06 09:54:43;;;;;;;6.03;3.78;;;19.10;99.90;;;;;;5106675;27;20564;-58
2023/05/06 09:57:09;;;;;;;9.32;3.50;;;19.10;99.90;;;;;;5108419;27;20084;-59
2023/05/06 09:59:35;;;;;;;4.97;2.97;;;19.00;99.90;;;;;;5113742;27;20026;-59
2023/05/06 10:02:01;;;;;;;4.68;2.97;;;19.10;99.90;;;;;;5107754;27;20024;-59
2023/05/06 10:04:29;;;;;;;5.50;2.60;;;19.00;99.90;;;;;;5114860;27;20072;-58
2023/05/06 10:06:59;;;;;;;4.05;2.85;;;18.80;99.90;;;;;;5102250;27;20133;-60
2023/05/06 10:09:26;;;;;;;7.90;4.10;;;19.10;99.90;;;;;;5107183;27;20034;-58
2023/05/06 10:11:52;;;;;;;7.05;3.80;;;19.20;99.90;;;;;;5128504;27;20487;-56
2023/05/06 10:14:18;;;;;;;3.92;3.10;;;19.20;99.90;;;;;;5106461;27;20044;-58
2023/05/06 10:16:47;;;;;;;6.72;3.80;;;19.20;99.90;;;;;;5108634;27;20035;-58
2023/05/06 10:19:15;;;;;;;6.40;3.90;;;19.30;99.90;;;;;;5103400;27;20418;-58
2023/05/06 10:21:47;;;;;;;5.82;3.70;;;19.40;99.90;;;;;;5095888;27;20059;-58
2023/05/06 10:24:17;;;;;;;4.45;3.42;;;19.30;99.90;;;;;;5108318;27;20027;-57
2023/05/06 10:26:45;;;;;;;4.15;2.90;;;19.00;99.90;;;;;;5105386;27;20036;-58
2023/05/06 10:29:12;;;;;;;3.97;3.00;;;18.80;99.90;;;;;;5110101;27;20035;-58
2023/05/06 10:31:45;;;;;;;3.72;3.00;;;19.10;99.90;;;;;;5112428;27;20113;-58
2023/05/06 10:34:10;;;;;;;6.80;3.03;;;19.50;99.90;;;;;;5117620;27;20062;-58
2023/05/06 10:36:38;;;;;;;4.43;3.30;;;19.60;99.90;;;;;;5107693;27;20067;-58
2023/05/06 10:39:05;;;;;;;4.45;3.05;;;19.70;99.90;;;;;;5111835;27;20100;-58
2023/05/06 10:41:34;;;;;;;4.35;3.40;;;19.70;99.90;;;;;;5114688;27;20038;-58
2023/05/06 10:44:00;;;;;;;5.20;3.58;;;19.50;99.90;;;;;;5102743;27;20547;-58
2023/05/06 10:46:29;;;;;;;5.15;3.03;;;19.40;99.90;;;;;;5109103;27;20031;-58
2023/05/06 10:49:03;;;;;;;4.32;2.70;;;19.60;99.90;;;;;;5115505;27;20023;-56
2023/05/06 10:51:33;;;;;;;4.50;2.85;;;19.70;99.90;;;;;;5110797;27;20027;-55
2023/05/06 10:54:03;;;;;;;5.68;2.40;;;20.00;99.90;;;;;;5111781;27;20059;-53
2023/05/06 10:56:34;;;;;;;6.35;3.90;;;20.20;99.90;;;;;;5114268;27;20027;-56
2023/05/06 10:59:03;;;;;;;4.97;3.30;;;;;;;;;;5108232;27;20120;-56
2023/05/06 11:01:28;;;;;;;7.57;3.65;;;20.20;99.90;;;;;;5109673;27;20023;-56
2023/05/06 11:03:54;;;;;;;3.90;2.97;;;20.10;99.90;;;;;;5113941;27;20043;-55
2023/05/06 11:06:40;;;;;;;5.95;3.72;;;20.10;99.90;;;;;;5103975;27;20431;-55
2023/05/06 11:09:18;;;;;;;4.65;3.67;;;19.90;99.90;;;;;;5100740;28;20076;-55
2023/05/06 11:11:51;;;;;;;5.15;2.95;;;19.70;99.90;;;;;;5103011;27;20024;-55
2023/05/06 11:14:36;;;;;;;7.95;3.03;;;19.80;99.90;;;;;;5111549;27;20549;-55
2023/05/06 11:17:04;;;;;;;5.22;2.55;;;20.30;99.90;;;;;;5110444;27;20031;-55
2023/05/06 11:19:32;;;;;;;5.25;2.40;;;20.30;99.90;;;;;;5119074;27;20042;-55
2023/05/06 11:22:00;;;;;;;5.65;2.22;;;20.30;99.90;;;;;;5100763;28;20028;-55
2023/05/06 11:24:28;;;;;;;3.58;1.98;;;20.50;99.90;;;;;;5103867;28;20046;-55
2023/05/06 11:26:58;;;;;;;3.28;2.13;;;20.50;99.90;;;;;;5101147;28;20540;-55
2023/05/06 11:29:25;;;;;;;3.65;2.08;;;20.70;99.90;;;;;;5105507;27;20035;-55
2023/05/06 11:31:52;;;;;;;6.30;2.10;;;20.50;99.90;;;;;;5101329;28;20035;-56
2023/05/06 11:34:27;;;;;;;4.20;2.25;;;20.40;99.90;;;;;;5109940;27;20727;-55
2023/05/06 11:37:01;;;;;;;4.47;2.20;;;20.30;99.90;;;;;;5104994;28;20104;-55
2023/05/06 11:39:30;;;;;;;3.67;2.30;;;20.50;99.90;;;;;;5105230;27;21119;-55
2023/05/06 11:42:02;;;;;;;4.28;2.60;;;20.10;99.90;;;;;;5110323;27;20053;-55
2023/05/06 11:44:32;;;;;;;3.95;2.28;;;20.30;99.90;;;;;;5111809;28;20034;-56
2023/05/06 11:47:00;;;;;;;3.50;2.05;;;20.40;99.90;;;;;;5096009;28;20134;-55
2023/05/06 11:49:26;;;;;;;4.28;2.00;;;20.40;99.90;;;;;;5113534;28;20028;-55
2023/05/06 11:51:52;;;;;;;2.90;1.77;;;20.30;99.90;;;;;;5107552;28;20546;-55
2023/05/06 11:54:21;;;;;;;3.67;1.77;;;20.40;99.90;;;;;;5108943;28;20052;-55
2023/05/06 11:56:52;;;;;;;5.72;2.05;;;20.60;99.90;;;;;;5101590;27;20455;-55
2023/05/06 11:59:44;;;;;;;3.72;1.88;;;20.70;99.90;;;;;;5110060;27;20117;-55
2023/05/06 12:02:13;;;;;;;4.22;1.73;;;20.80;99.90;;;;;;5107139;27;20137;-55
2023/05/06 12:04:43;;;;;;;4.45;1.92;;;20.60;99.90;;;;;;5110962;27;20471;-55
2023/05/06 12:07:11;;;;;;;4.00;1.60;;;20.70;99.90;;;;;;5109375;27;20427;-55
2023/05/06 12:09:40;;;;;;;4.30;1.60;;;20.80;99.90;;;;;;5111470;27;20093;-55
2023/05/06 12:12:07;;;;;;;4.45;1.60;;;20.80;99.90;;;;;;5107381;27;20035;-55
2023/05/06 12:14:34;;;;;;;7.88;2.20;;;20.90;99.90;;;;;;5115252;27;20340;-55
2023/05/06 12:16:59;;;;;;;3.30;1.73;;;21.00;99.90;;;;;;5108865;27;20031;-55
2023/05/06 12:19:25;;;;;;;3.75;1.23;;;20.80;99.90;;;;;;5114456;27;20035;-55
2023/05/06 12:21:51;;;;;;;3.92;1.52;;;20.70;99.90;;;;;;5117971;27;20042;-55
2023/05/06 12:24:27;;;;;;;3.78;1.77;;;20.90;99.90;;;;;;5112028;27;20418;-55
2023/05/06 12:26:53;;;;;;;3.63;1.70;;;21.00;99.90;;;;;;5104767;27;20159;-55
2023/05/06 12:29:19;;;;;;;3.75;1.52;;;21.00;99.90;;;;;;5104143;27;20089;-55
2023/05/06 12:31:46;;;;;;;5.35;1.60;;;20.90;99.90;;;;;;5109479;27;20031;-56